createdAt,value
2022-11-22T00:00:13.000Z,0
2022-11-22T00:01:30.000Z,0
2022-11-22T00:02:46.000Z,0
2022-11-22T00:04:02.000Z,0
2022-11-22T00:05:18.000Z,0
2022-11-22T00:06:34.000Z,0
2022-11-22T00:07:51.000Z,0
2022-11-22T00:09:07.000Z,0
2022-11-22T00:10:23.000Z,0
2022-11-22T00:11:39.000Z,0
2022-11-22T00:12:54.000Z,0
2022-11-22T00:14:11.000Z,0
2022-11-22T00:15:27.000Z,0
2022-11-22T00:16:43.000Z,0
2022-11-22T00:17:59.000Z,0
2022-11-22T00:19:15.000Z,0
2022-11-22T00:20:31.000Z,0
2022-11-22T00:21:48.000Z,0
2022-11-22T00:23:04.000Z,0
2022-11-22T00:24:20.000Z,0
2022-11-22T00:25:36.000Z,0
2022-11-22T00:26:52.000Z,0
2022-11-22T00:28:09.000Z,0
2022-11-22T00:29:24.000Z,0
2022-11-22T00:30:40.000Z,0
2022-11-22T00:31:56.000Z,0
2022-11-22T00:33:12.000Z,0
2022-11-22T00:34:29.000Z,0
2022-11-22T00:35:45.000Z,0
2022-11-22T00:37:00.000Z,0
2022-11-22T00:38:16.000Z,0
2022-11-22T00:39:32.000Z,0
2022-11-22T00:40:49.000Z,0
2022-11-22T00:42:05.000Z,0
2022-11-22T00:43:21.000Z,0
2022-11-22T00:44:37.000Z,0
2022-11-22T00:45:53.000Z,0
2022-11-22T00:47:09.000Z,0
2022-11-22T00:48:26.000Z,0
2022-11-22T00:49:42.000Z,0
2022-11-22T00:50:58.000Z,0
2022-11-22T00:52:14.000Z,0
2022-11-22T00:53:29.000Z,0
2022-11-22T00:54:46.000Z,0
2022-11-22T00:56:02.000Z,0
2022-11-22T00:57:18.000Z,0
2022-11-22T00:58:34.000Z,0
2022-11-22T00:59:50.000Z,0
2022-11-22T01:01:07.000Z,0
2022-11-22T01:02:23.000Z,0
2022-11-22T01:03:39.000Z,0
2022-11-22T01:04:55.000Z,0
2022-11-22T01:06:11.000Z,0
2022-11-22T01:07:28.000Z,0
2022-11-22T01:08:44.000Z,0
2022-11-22T01:09:59.000Z,0
2022-11-22T01:11:15.000Z,0
2022-11-22T01:12:31.000Z,0
2022-11-22T01:13:47.000Z,0
2022-11-22T01:15:04.000Z,0
2022-11-22T01:16:20.000Z,0
2022-11-22T01:17:36.000Z,0
2022-11-22T01:18:52.000Z,0
2022-11-22T01:20:08.000Z,0
2022-11-22T01:21:25.000Z,0
2022-11-22T01:22:41.000Z,0
2022-11-22T01:23:57.000Z,0
2022-11-22T01:25:13.000Z,0
2022-11-22T01:26:28.000Z,0
2022-11-22T01:27:45.000Z,0
2022-11-22T01:29:01.000Z,0
2022-11-22T01:30:17.000Z,0
2022-11-22T01:31:33.000Z,0
2022-11-22T01:32:49.000Z,0
2022-11-22T01:34:06.000Z,0
2022-11-22T01:35:22.000Z,0
2022-11-22T01:36:38.000Z,0
2022-11-22T01:37:54.000Z,0
2022-11-22T01:39:10.000Z,0
2022-11-22T01:40:26.000Z,0
2022-11-22T01:41:43.000Z,0
2022-11-22T01:42:58.000Z,0
2022-11-22T01:44:14.000Z,0
2022-11-22T01:45:30.000Z,0
2022-11-22T01:46:46.000Z,0
2022-11-22T01:48:03.000Z,0
2022-11-22T01:49:19.000Z,0
2022-11-22T01:50:35.000Z,0
2022-11-22T01:51:51.000Z,0
2022-11-22T01:53:07.000Z,0
2022-11-22T01:54:24.000Z,0
2022-11-22T01:55:40.000Z,0
2022-11-22T01:56:56.000Z,0
2022-11-22T01:58:12.000Z,0
2022-11-22T01:59:27.000Z,0
2022-11-22T02:00:44.000Z,0
2022-11-22T02:02:00.000Z,0
2022-11-22T02:03:16.000Z,0
2022-11-22T02:04:32.000Z,0
2022-11-22T02:05:48.000Z,0
2022-11-22T02:07:04.000Z,0
2022-11-22T02:08:21.000Z,0
2022-11-22T02:09:37.000Z,0
2022-11-22T02:10:53.000Z,0
2022-11-22T02:12:09.000Z,0
2022-11-22T02:13:25.000Z,0
2022-11-22T02:14:42.000Z,0
2022-11-22T02:15:57.000Z,0
2022-11-22T02:17:13.000Z,0
2022-11-22T02:18:29.000Z,0
2022-11-22T02:19:45.000Z,0
2022-11-22T02:21:02.000Z,0
2022-11-22T02:22:18.000Z,0
2022-11-22T02:23:34.000Z,0
2022-11-22T02:24:50.000Z,0
2022-11-22T02:26:06.000Z,0
2022-11-22T02:27:23.000Z,0
2022-11-22T02:28:39.000Z,0
2022-11-22T02:29:55.000Z,0
2022-11-22T02:31:11.000Z,0
2022-11-22T02:32:26.000Z,0
2022-11-22T02:33:42.000Z,0
2022-11-22T02:34:59.000Z,0
2022-11-22T02:36:15.000Z,0
2022-11-22T02:37:31.000Z,0
2022-11-22T02:38:47.000Z,0
2022-11-22T02:40:03.000Z,0
2022-11-22T02:41:20.000Z,0
2022-11-22T02:42:36.000Z,0
2022-11-22T02:43:52.000Z,0
2022-11-22T02:45:08.000Z,0
2022-11-22T02:46:24.000Z,0
2022-11-22T02:47:41.000Z,0
2022-11-22T02:48:56.000Z,0
2022-11-22T02:50:12.000Z,0
2022-11-22T02:51:28.000Z,0
2022-11-22T02:52:44.000Z,0
2022-11-22T02:54:01.000Z,0
2022-11-22T02:55:17.000Z,0
2022-11-22T02:56:33.000Z,0
2022-11-22T02:57:49.000Z,0
2022-11-22T02:59:05.000Z,0
2022-11-22T03:00:21.000Z,0
2022-11-22T03:01:38.000Z,0
2022-11-22T03:02:54.000Z,0
2022-11-22T03:04:10.000Z,0
2022-11-22T03:05:25.000Z,0
2022-11-22T03:06:41.000Z,0
2022-11-22T03:07:58.000Z,0
2022-11-22T03:09:14.000Z,0
2022-11-22T03:10:30.000Z,0
2022-11-22T03:11:46.000Z,0
2022-11-22T03:13:02.000Z,0
2022-11-22T03:14:19.000Z,0
2022-11-22T03:15:35.000Z,0
2022-11-22T03:16:51.000Z,0
2022-11-22T03:18:07.000Z,0
2022-11-22T03:19:23.000Z,0
2022-11-22T03:20:40.000Z,0
2022-11-22T03:21:55.000Z,0
2022-11-22T03:23:11.000Z,0
2022-11-22T03:24:27.000Z,0
2022-11-22T03:25:43.000Z,0
2022-11-22T03:26:59.000Z,0
2022-11-22T03:28:16.000Z,0
2022-11-22T03:29:32.000Z,0
2022-11-22T03:30:48.000Z,0
2022-11-22T03:32:04.000Z,0
2022-11-22T03:33:20.000Z,0
2022-11-22T03:34:37.000Z,0
2022-11-22T03:35:53.000Z,0
2022-11-22T03:37:09.000Z,0
2022-11-22T03:38:24.000Z,0
2022-11-22T03:39:40.000Z,0
2022-11-22T03:40:57.000Z,0
2022-11-22T03:42:13.000Z,0
2022-11-22T03:43:29.000Z,0
2022-11-22T03:44:45.000Z,0
2022-11-22T03:46:01.000Z,0
2022-11-22T03:47:18.000Z,0
2022-11-22T03:48:34.000Z,0
2022-11-22T03:49:50.000Z,0
2022-11-22T03:51:06.000Z,0
2022-11-22T03:52:22.000Z,0
2022-11-22T03:53:38.000Z,0
2022-11-22T03:54:54.000Z,0
2022-11-22T03:56:10.000Z,0
2022-11-22T03:57:26.000Z,0
2022-11-22T03:58:42.000Z,0
2022-11-22T03:59:58.000Z,0
2022-11-22T04:01:15.000Z,0
2022-11-22T04:02:31.000Z,0
2022-11-22T04:03:47.000Z,0
2022-11-22T04:05:03.000Z,0
2022-11-22T04:06:19.000Z,0
2022-11-22T04:07:36.000Z,0
2022-11-22T04:08:52.000Z,0
2022-11-22T04:10:08.000Z,0
2022-11-22T04:11:23.000Z,0
2022-11-22T04:12:39.000Z,0
2022-11-22T04:13:56.000Z,0
2022-11-22T04:15:12.000Z,0
2022-11-22T04:16:28.000Z,0
2022-11-22T04:17:44.000Z,0
2022-11-22T04:19:00.000Z,0
2022-11-22T04:20:16.000Z,0
2022-11-22T04:21:33.000Z,0
2022-11-22T04:22:49.000Z,0
2022-11-22T04:24:05.000Z,0
2022-11-22T04:25:21.000Z,0
2022-11-22T04:26:37.000Z,0
2022-11-22T04:27:53.000Z,0
2022-11-22T04:29:09.000Z,0
2022-11-22T04:30:25.000Z,0
2022-11-22T04:31:41.000Z,0
2022-11-22T04:32:57.000Z,0
2022-11-22T04:34:14.000Z,0
2022-11-22T04:35:30.000Z,0
2022-11-22T04:36:46.000Z,0
2022-11-22T04:38:02.000Z,0
2022-11-22T04:39:18.000Z,0
2022-11-22T04:40:35.000Z,0
2022-11-22T04:41:51.000Z,0
2022-11-22T04:43:07.000Z,0
2022-11-22T04:44:22.000Z,0
2022-11-22T04:45:38.000Z,0
2022-11-22T04:46:54.000Z,0
2022-11-22T04:48:11.000Z,0
2022-11-22T04:49:27.000Z,0
2022-11-22T04:50:43.000Z,0
2022-11-22T04:51:58.000Z,0
2022-11-22T04:53:14.000Z,0
2022-11-22T04:54:31.000Z,0
2022-11-22T04:55:47.000Z,0
2022-11-22T04:57:03.000Z,0
2022-11-22T04:58:19.000Z,0
2022-11-22T04:59:35.000Z,0
2022-11-22T05:00:52.000Z,0
2022-11-22T05:02:08.000Z,0
2022-11-22T05:03:24.000Z,0
2022-11-22T05:04:40.000Z,0
2022-11-22T05:05:56.000Z,0
2022-11-22T05:07:13.000Z,0
2022-11-22T05:08:28.000Z,0
2022-11-22T05:09:44.000Z,0
2022-11-22T05:11:00.000Z,0
2022-11-22T05:12:16.000Z,0
2022-11-22T05:13:32.000Z,0
2022-11-22T05:14:49.000Z,0
2022-11-22T05:16:05.000Z,0
2022-11-22T05:17:21.000Z,0
2022-11-22T05:18:37.000Z,0
2022-11-22T05:19:53.000Z,0
2022-11-22T05:21:10.000Z,0
2022-11-22T05:22:26.000Z,0
2022-11-22T05:23:42.000Z,0
2022-11-22T05:24:57.000Z,0
2022-11-22T05:26:13.000Z,0
2022-11-22T05:27:30.000Z,0
2022-11-22T05:28:46.000Z,0
2022-11-22T05:30:02.000Z,0
2022-11-22T05:31:18.000Z,0
2022-11-22T05:32:34.000Z,0
2022-11-22T05:33:51.000Z,0
2022-11-22T05:35:07.000Z,0
2022-11-22T05:36:23.000Z,0
2022-11-22T05:37:39.000Z,0
2022-11-22T05:38:55.000Z,0
2022-11-22T05:40:11.000Z,0
2022-11-22T05:41:27.000Z,0
2022-11-22T05:42:43.000Z,0
2022-11-22T05:43:59.000Z,0
2022-11-22T05:45:15.000Z,0
2022-11-22T05:46:31.000Z,0
2022-11-22T05:47:48.000Z,0
2022-11-22T05:49:04.000Z,0
2022-11-22T05:50:20.000Z,0
2022-11-22T05:51:36.000Z,0
2022-11-22T05:52:52.000Z,0
2022-11-22T05:54:09.000Z,0
2022-11-22T05:55:25.000Z,0
2022-11-22T05:56:41.000Z,0
2022-11-22T05:57:56.000Z,0
2022-11-22T05:59:12.000Z,0
2022-11-22T06:00:29.000Z,0
2022-11-22T06:01:45.000Z,0
2022-11-22T06:03:01.000Z,0
2022-11-22T06:04:17.000Z,0
2022-11-22T06:05:33.000Z,0
2022-11-22T06:06:49.000Z,0
2022-11-22T06:08:06.000Z,0
2022-11-22T06:09:22.000Z,0
2022-11-22T06:10:38.000Z,0
2022-11-22T06:11:54.000Z,0
2022-11-22T06:13:10.000Z,0
2022-11-22T06:14:26.000Z,0
2022-11-22T06:15:42.000Z,0
2022-11-22T06:16:58.000Z,0
2022-11-22T06:18:14.000Z,0
2022-11-22T06:19:30.000Z,0
2022-11-22T06:20:47.000Z,0
2022-11-22T06:22:03.000Z,0
2022-11-22T06:23:19.000Z,0
2022-11-22T06:24:35.000Z,0
2022-11-22T06:25:51.000Z,0
2022-11-22T06:27:08.000Z,0
2022-11-22T06:28:24.000Z,0
2022-11-22T06:29:40.000Z,0
2022-11-22T06:30:55.000Z,0
2022-11-22T06:32:11.000Z,0
2022-11-22T06:33:27.000Z,0
2022-11-22T06:34:44.000Z,0
2022-11-22T06:36:00.000Z,0
2022-11-22T06:37:16.000Z,0
2022-11-22T06:38:32.000Z,0
2022-11-22T06:39:48.000Z,0
2022-11-22T06:41:05.000Z,0
2022-11-22T06:42:21.000Z,0
2022-11-22T06:43:37.000Z,0
2022-11-22T06:44:53.000Z,0
2022-11-22T06:46:09.000Z,0
2022-11-22T06:47:26.000Z,0
2022-11-22T06:48:41.000Z,0
2022-11-22T06:49:57.000Z,0
2022-11-22T06:51:13.000Z,0
2022-11-22T06:52:29.000Z,5
2022-11-22T06:53:46.000Z,5
2022-11-22T06:55:02.000Z,5
2022-11-22T06:56:18.000Z,5
2022-11-22T06:57:34.000Z,5
2022-11-22T06:58:50.000Z,5
2022-11-22T07:00:06.000Z,11
2022-11-22T07:01:23.000Z,11
2022-11-22T07:02:39.000Z,11
2022-11-22T07:03:55.000Z,11
2022-11-22T07:05:10.000Z,11
2022-11-22T07:06:26.000Z,11
2022-11-22T07:07:43.000Z,16
2022-11-22T07:08:59.000Z,16
2022-11-22T07:10:15.000Z,16
2022-11-22T07:11:31.000Z,16
2022-11-22T07:12:47.000Z,22
2022-11-22T07:14:04.000Z,22
2022-11-22T07:15:20.000Z,22
2022-11-22T07:16:36.000Z,22
2022-11-22T07:17:52.000Z,28
2022-11-22T07:19:08.000Z,28
2022-11-22T07:20:25.000Z,28
2022-11-22T07:21:40.000Z,33
2022-11-22T07:22:56.000Z,33
2022-11-22T07:24:12.000Z,33
2022-11-22T07:25:28.000Z,39
2022-11-22T07:26:44.000Z,39
2022-11-22T07:28:01.000Z,39
2022-11-22T07:29:17.000Z,45
2022-11-22T07:30:33.000Z,45
2022-11-22T07:31:49.000Z,45
2022-11-22T07:33:05.000Z,45
2022-11-22T07:34:22.000Z,50
2022-11-22T07:35:38.000Z,50
2022-11-22T07:36:54.000Z,50
2022-11-22T07:38:09.000Z,50
2022-11-22T07:39:25.000Z,50
2022-11-22T07:40:42.000Z,56
2022-11-22T07:41:58.000Z,56
2022-11-22T07:43:14.000Z,61
2022-11-22T07:44:30.000Z,61
2022-11-22T07:45:46.000Z,61
2022-11-22T07:47:03.000Z,61
2022-11-22T07:48:19.000Z,61
2022-11-22T07:49:35.000Z,67
2022-11-22T07:50:51.000Z,67
2022-11-22T07:52:07.000Z,67
2022-11-22T07:53:23.000Z,67
2022-11-22T07:54:39.000Z,73
2022-11-22T07:55:55.000Z,73
2022-11-22T07:57:11.000Z,73
2022-11-22T07:58:27.000Z,73
2022-11-22T07:59:43.000Z,73
2022-11-22T08:01:00.000Z,78
2022-11-22T08:02:16.000Z,78
2022-11-22T08:03:32.000Z,84
2022-11-22T08:04:48.000Z,84
2022-11-22T08:06:04.000Z,90
2022-11-22T08:07:21.000Z,84
2022-11-22T08:08:37.000Z,84
2022-11-22T08:09:53.000Z,84
2022-11-22T08:11:08.000Z,84
2022-11-22T08:12:24.000Z,84
2022-11-22T08:13:41.000Z,84
2022-11-22T08:14:57.000Z,90
2022-11-22T08:16:13.000Z,90
2022-11-22T08:17:29.000Z,95
2022-11-22T08:18:45.000Z,95
2022-11-22T08:20:01.000Z,95
2022-11-22T08:21:18.000Z,95
2022-11-22T08:22:34.000Z,95
2022-11-22T08:23:50.000Z,106
2022-11-22T08:25:06.000Z,118
2022-11-22T08:26:22.000Z,118
2022-11-22T08:27:38.000Z,118
2022-11-22T08:28:54.000Z,112
2022-11-22T08:30:10.000Z,106
2022-11-22T08:31:26.000Z,106
2022-11-22T08:32:42.000Z,106
2022-11-22T08:33:59.000Z,112
2022-11-22T08:35:15.000Z,112
2022-11-22T08:36:31.000Z,118
2022-11-22T08:37:47.000Z,123
2022-11-22T08:39:03.000Z,129
2022-11-22T08:40:20.000Z,129
2022-11-22T08:41:36.000Z,135
2022-11-22T08:42:52.000Z,135
2022-11-22T08:44:07.000Z,140
2022-11-22T08:45:23.000Z,135
2022-11-22T08:46:39.000Z,135
2022-11-22T08:47:56.000Z,140
2022-11-22T08:49:12.000Z,146
2022-11-22T08:50:28.000Z,157
2022-11-22T08:51:44.000Z,163
2022-11-22T08:53:00.000Z,168
2022-11-22T08:54:17.000Z,157
2022-11-22T08:55:33.000Z,151
2022-11-22T08:56:49.000Z,151
2022-11-22T08:58:05.000Z,157
2022-11-22T08:59:21.000Z,163
2022-11-22T09:00:37.000Z,168
2022-11-22T09:01:53.000Z,180
2022-11-22T09:03:09.000Z,185
2022-11-22T09:04:25.000Z,196
2022-11-22T09:05:41.000Z,202
2022-11-22T09:06:57.000Z,202
2022-11-22T09:08:13.000Z,208
2022-11-22T09:09:29.000Z,208
2022-11-22T09:10:45.000Z,213
2022-11-22T09:12:01.000Z,219
2022-11-22T09:13:17.000Z,219
2022-11-22T09:14:34.000Z,225
2022-11-22T09:15:50.000Z,225
2022-11-22T09:17:06.000Z,230
2022-11-22T09:18:22.000Z,236
2022-11-22T09:19:38.000Z,241
2022-11-22T09:20:55.000Z,241
2022-11-22T09:22:11.000Z,241
2022-11-22T09:23:26.000Z,253
2022-11-22T09:24:42.000Z,309
2022-11-22T09:25:58.000Z,590
2022-11-22T09:27:15.000Z,540
2022-11-22T09:28:31.000Z,511
2022-11-22T09:29:47.000Z,742
2022-11-22T09:31:03.000Z,871
2022-11-22T09:32:19.000Z,922
2022-11-22T09:33:35.000Z,646
2022-11-22T09:34:52.000Z,826
2022-11-22T09:36:08.000Z,742
2022-11-22T09:37:24.000Z,421
2022-11-22T09:38:40.000Z,534
2022-11-22T09:39:55.000Z,843
2022-11-22T09:41:12.000Z,883
2022-11-22T09:42:28.000Z,556
2022-11-22T09:43:44.000Z,736
2022-11-22T09:45:00.000Z,911
2022-11-22T09:46:16.000Z,720
2022-11-22T09:47:33.000Z,523
2022-11-22T09:48:49.000Z,523
2022-11-22T09:50:05.000Z,568
2022-11-22T09:51:21.000Z,759
2022-11-22T09:52:37.000Z,703
2022-11-22T09:53:53.000Z,596
2022-11-22T09:55:10.000Z,866
2022-11-22T09:56:25.000Z,1068
2022-11-22T09:57:41.000Z,1018
2022-11-22T09:58:57.000Z,731
2022-11-22T10:00:13.000Z,804
2022-11-22T10:01:30.000Z,1147
2022-11-22T10:02:46.000Z,1029
2022-11-22T10:04:02.000Z,765
2022-11-22T10:05:18.000Z,517
2022-11-22T10:06:34.000Z,562
2022-11-22T10:07:51.000Z,601
2022-11-22T10:09:07.000Z,961
2022-11-22T10:10:23.000Z,1147
2022-11-22T10:11:39.000Z,1125
2022-11-22T10:12:54.000Z,1074
2022-11-22T10:14:11.000Z,900
2022-11-22T10:15:27.000Z,708
2022-11-22T10:16:43.000Z,1051
2022-11-22T10:17:59.000Z,1203
2022-11-22T10:19:15.000Z,1186
2022-11-22T10:20:31.000Z,1158
2022-11-22T10:21:48.000Z,1119
2022-11-22T10:23:04.000Z,787
2022-11-22T10:24:20.000Z,725
2022-11-22T10:25:36.000Z,1051
2022-11-22T10:26:52.000Z,1046
2022-11-22T10:28:09.000Z,838
2022-11-22T10:29:24.000Z,618
2022-11-22T10:30:40.000Z,528
2022-11-22T10:31:56.000Z,618
2022-11-22T10:33:12.000Z,770
2022-11-22T10:34:29.000Z,855
2022-11-22T10:35:45.000Z,708
2022-11-22T10:37:01.000Z,787
2022-11-22T10:38:17.000Z,1018
2022-11-22T10:39:33.000Z,1068
2022-11-22T10:40:49.000Z,1029
2022-11-22T10:42:06.000Z,1051
2022-11-22T10:43:22.000Z,1080
2022-11-22T10:44:38.000Z,1091
2022-11-22T10:45:53.000Z,1096
2022-11-22T10:47:09.000Z,860
2022-11-22T10:48:26.000Z,776
2022-11-22T10:49:42.000Z,1057
2022-11-22T10:50:58.000Z,1136
2022-11-22T10:52:14.000Z,1108
2022-11-22T10:53:30.000Z,1102
2022-11-22T10:54:47.000Z,978
2022-11-22T10:56:03.000Z,922
2022-11-22T10:57:19.000Z,995
2022-11-22T10:58:35.000Z,1035
2022-11-22T10:59:51.000Z,843
2022-11-22T11:01:07.000Z,905
2022-11-22T11:02:23.000Z,832
2022-11-22T11:03:39.000Z,871
2022-11-22T11:04:55.000Z,753
2022-11-22T11:06:11.000Z,573
2022-11-22T11:07:27.000Z,495
2022-11-22T11:08:44.000Z,455
2022-11-22T11:10:00.000Z,421
2022-11-22T11:11:16.000Z,416
2022-11-22T11:12:32.000Z,427
2022-11-22T11:13:48.000Z,433
2022-11-22T11:15:05.000Z,455
2022-11-22T11:16:21.000Z,511
2022-11-22T11:17:37.000Z,551
2022-11-22T11:18:52.000Z,545
2022-11-22T11:20:08.000Z,421
2022-11-22T11:21:25.000Z,360
2022-11-22T11:22:41.000Z,303
2022-11-22T11:23:57.000Z,286
2022-11-22T11:25:13.000Z,286
2022-11-22T11:26:29.000Z,275
2022-11-22T11:27:45.000Z,275
2022-11-22T11:29:02.000Z,270
2022-11-22T11:30:18.000Z,331
2022-11-22T11:31:34.000Z,337
2022-11-22T11:32:50.000Z,326
2022-11-22T11:34:06.000Z,354
2022-11-22T11:35:22.000Z,376
2022-11-22T11:36:38.000Z,354
2022-11-22T11:37:54.000Z,343
2022-11-22T11:39:10.000Z,337
2022-11-22T11:40:26.000Z,354
2022-11-22T11:41:43.000Z,326
2022-11-22T11:42:59.000Z,298
2022-11-22T11:44:15.000Z,286
2022-11-22T11:45:31.000Z,264
2022-11-22T11:46:47.000Z,275
2022-11-22T11:48:03.000Z,286
2022-11-22T11:49:20.000Z,292
2022-11-22T11:50:36.000Z,298
2022-11-22T11:51:52.000Z,270
2022-11-22T11:53:07.000Z,275
2022-11-22T11:54:23.000Z,247
2022-11-22T11:55:40.000Z,241
2022-11-22T11:56:56.000Z,264
2022-11-22T11:58:12.000Z,258
2022-11-22T11:59:28.000Z,275
2022-11-22T12:00:44.000Z,320
2022-11-22T12:02:01.000Z,326
2022-11-22T12:03:17.000Z,354
2022-11-22T12:04:33.000Z,331
2022-11-22T12:05:49.000Z,270
2022-11-22T12:07:05.000Z,225
2022-11-22T12:08:21.000Z,236
2022-11-22T12:09:37.000Z,326
2022-11-22T12:10:53.000Z,303
2022-11-22T12:12:09.000Z,331
2022-11-22T12:13:25.000Z,315
2022-11-22T12:14:41.000Z,326
2022-11-22T12:15:58.000Z,360
2022-11-22T12:17:14.000Z,399
2022-11-22T12:18:30.000Z,382
2022-11-22T12:19:46.000Z,326
2022-11-22T12:21:02.000Z,348
2022-11-22T12:22:19.000Z,388
2022-11-22T12:23:35.000Z,337
2022-11-22T12:24:51.000Z,320
2022-11-22T12:26:06.000Z,343
2022-11-22T12:27:22.000Z,360
2022-11-22T12:28:39.000Z,360
2022-11-22T12:29:55.000Z,337
2022-11-22T12:31:11.000Z,303
2022-11-22T12:32:27.000Z,275
2022-11-22T12:33:43.000Z,270
2022-11-22T12:34:59.000Z,298
2022-11-22T12:36:16.000Z,264
2022-11-22T12:37:32.000Z,247
2022-11-22T12:38:48.000Z,219
2022-11-22T12:40:04.000Z,236
2022-11-22T12:41:20.000Z,247
2022-11-22T12:42:36.000Z,208
2022-11-22T12:43:52.000Z,247
2022-11-22T12:45:08.000Z,309
2022-11-22T12:46:24.000Z,348
2022-11-22T12:47:40.000Z,298
2022-11-22T12:48:57.000Z,225
2022-11-22T12:50:13.000Z,196
2022-11-22T12:51:29.000Z,253
2022-11-22T12:52:45.000Z,264
2022-11-22T12:54:01.000Z,275
2022-11-22T12:55:17.000Z,247
2022-11-22T12:56:34.000Z,230
2022-11-22T12:57:50.000Z,202
2022-11-22T12:59:05.000Z,185
2022-11-22T13:00:21.000Z,163
2022-11-22T13:01:37.000Z,135
2022-11-22T13:02:54.000Z,106
2022-11-22T13:04:10.000Z,95
2022-11-22T13:05:26.000Z,101
2022-11-22T13:06:42.000Z,123
2022-11-22T13:07:58.000Z,151
2022-11-22T13:09:15.000Z,191
2022-11-22T13:10:31.000Z,230
2022-11-22T13:11:47.000Z,258
2022-11-22T13:13:03.000Z,270
2022-11-22T13:14:19.000Z,270
2022-11-22T13:15:34.000Z,253
2022-11-22T13:16:51.000Z,236
2022-11-22T13:18:07.000Z,208
2022-11-22T13:19:23.000Z,185
2022-11-22T13:20:39.000Z,174
2022-11-22T13:21:54.000Z,157
2022-11-22T13:23:11.000Z,140
2022-11-22T13:24:27.000Z,140
2022-11-22T13:25:43.000Z,135
2022-11-22T13:26:59.000Z,118
2022-11-22T13:28:15.000Z,106
2022-11-22T13:29:32.000Z,112
2022-11-22T13:30:48.000Z,112
2022-11-22T13:32:04.000Z,106
2022-11-22T13:33:20.000Z,90
2022-11-22T13:34:36.000Z,90
2022-11-22T13:35:53.000Z,84
2022-11-22T13:37:09.000Z,90
2022-11-22T13:38:24.000Z,84
2022-11-22T13:39:40.000Z,73
2022-11-22T13:40:56.000Z,67
2022-11-22T13:42:12.000Z,73
2022-11-22T13:43:29.000Z,78
2022-11-22T13:44:45.000Z,84
2022-11-22T13:46:01.000Z,90
2022-11-22T13:47:17.000Z,95
2022-11-22T13:48:33.000Z,106
2022-11-22T13:49:50.000Z,101
2022-11-22T13:51:06.000Z,90
2022-11-22T13:52:22.000Z,78
2022-11-22T13:53:38.000Z,73
2022-11-22T13:54:53.000Z,73
2022-11-22T13:56:10.000Z,61
2022-11-22T13:57:26.000Z,61
2022-11-22T13:58:42.000Z,61
2022-11-22T13:59:58.000Z,61
2022-11-22T14:01:14.000Z,61
2022-11-22T14:02:30.000Z,67
2022-11-22T14:03:47.000Z,61
2022-11-22T14:05:03.000Z,50
2022-11-22T14:06:19.000Z,50
2022-11-22T14:07:35.000Z,50
2022-11-22T14:08:51.000Z,56
2022-11-22T14:10:08.000Z,67
2022-11-22T14:11:23.000Z,78
2022-11-22T14:12:39.000Z,95
2022-11-22T14:13:55.000Z,95
2022-11-22T14:15:11.000Z,95
2022-11-22T14:16:28.000Z,95
2022-11-22T14:17:44.000Z,95
2022-11-22T14:19:00.000Z,106
2022-11-22T14:20:16.000Z,101
2022-11-22T14:21:32.000Z,84
2022-11-22T14:22:49.000Z,67
2022-11-22T14:24:05.000Z,61
2022-11-22T14:25:21.000Z,61
2022-11-22T14:26:37.000Z,61
2022-11-22T14:27:52.000Z,67
2022-11-22T14:29:08.000Z,61
2022-11-22T14:30:25.000Z,61
2022-11-22T14:31:41.000Z,61
2022-11-22T14:32:57.000Z,67
2022-11-22T14:34:13.000Z,61
2022-11-22T14:35:29.000Z,56
2022-11-22T14:36:46.000Z,61
2022-11-22T14:38:02.000Z,61
2022-11-22T14:39:18.000Z,61
2022-11-22T14:40:34.000Z,56
2022-11-22T14:41:50.000Z,56
2022-11-22T14:43:07.000Z,50
2022-11-22T14:44:22.000Z,50
2022-11-22T14:45:38.000Z,50
2022-11-22T14:46:54.000Z,39
2022-11-22T14:48:10.000Z,33
2022-11-22T14:49:26.000Z,33
2022-11-22T14:50:43.000Z,28
2022-11-22T14:51:59.000Z,33
2022-11-22T14:53:15.000Z,33
2022-11-22T14:54:31.000Z,28
2022-11-22T14:55:47.000Z,22
2022-11-22T14:57:04.000Z,28
2022-11-22T14:58:20.000Z,22
2022-11-22T14:59:36.000Z,22
2022-11-22T15:00:51.000Z,22
2022-11-22T15:02:07.000Z,22
2022-11-22T15:03:24.000Z,28
2022-11-22T15:04:40.000Z,28
2022-11-22T15:05:56.000Z,28
2022-11-22T15:07:12.000Z,28
2022-11-22T15:08:28.000Z,28
2022-11-22T15:09:44.000Z,22
2022-11-22T15:11:01.000Z,22
2022-11-22T15:12:17.000Z,16
2022-11-22T15:13:33.000Z,11
2022-11-22T15:14:49.000Z,11
2022-11-22T15:16:05.000Z,11
2022-11-22T15:42:43.000Z,0
2022-11-22T15:46:32.000Z,0
2022-11-22T15:47:48.000Z,0
2022-11-22T15:49:04.000Z,0
2022-11-22T15:50:20.000Z,0
2022-11-22T15:51:36.000Z,0
2022-11-22T15:52:52.000Z,0
2022-11-22T15:54:08.000Z,0
2022-11-22T15:55:24.000Z,0
2022-11-22T15:56:40.000Z,0
2022-11-22T15:57:57.000Z,0
2022-11-22T15:59:13.000Z,0
2022-11-22T16:00:29.000Z,0
2022-11-22T16:01:45.000Z,0
2022-11-22T16:03:01.000Z,0
2022-11-22T16:04:18.000Z,0
2022-11-22T16:05:34.000Z,0
2022-11-22T16:06:49.000Z,0
2022-11-22T16:08:05.000Z,0
2022-11-22T16:09:21.000Z,0
2022-11-22T16:10:38.000Z,0
2022-11-22T16:11:54.000Z,0
2022-11-22T16:13:10.000Z,0
2022-11-22T16:14:26.000Z,0
2022-11-22T16:15:42.000Z,0
2022-11-22T16:16:59.000Z,0
2022-11-22T16:18:15.000Z,0
2022-11-22T16:19:31.000Z,0
2022-11-22T16:20:47.000Z,0
2022-11-22T16:22:03.000Z,0
2022-11-22T16:23:18.000Z,0
2022-11-22T16:24:35.000Z,0
2022-11-22T16:25:51.000Z,0
2022-11-22T16:27:07.000Z,0
2022-11-22T16:28:23.000Z,0
2022-11-22T16:29:39.000Z,0
2022-11-22T16:30:56.000Z,0
2022-11-22T16:32:12.000Z,0
2022-11-22T16:33:28.000Z,0
2022-11-22T16:34:44.000Z,0
2022-11-22T16:36:00.000Z,0
2022-11-22T16:37:17.000Z,0
2022-11-22T16:38:33.000Z,0
2022-11-22T16:39:48.000Z,0
2022-11-22T16:41:04.000Z,0
2022-11-22T16:42:20.000Z,0
2022-11-22T16:43:36.000Z,0
2022-11-22T16:44:53.000Z,0
2022-11-22T16:46:09.000Z,0
2022-11-22T16:47:25.000Z,0
2022-11-22T16:48:41.000Z,0
2022-11-22T16:49:57.000Z,0
2022-11-22T16:51:14.000Z,0
2022-11-22T16:52:30.000Z,0
2022-11-22T16:53:46.000Z,0
2022-11-22T16:55:02.000Z,0
2022-11-22T16:56:17.000Z,0
2022-11-22T16:57:34.000Z,0
2022-11-22T16:58:50.000Z,0
2022-11-22T17:00:06.000Z,0
2022-11-22T17:01:22.000Z,0
2022-11-22T17:02:38.000Z,0
2022-11-22T17:03:54.000Z,0
2022-11-22T17:05:11.000Z,0
2022-11-22T17:06:27.000Z,0
2022-11-22T17:07:43.000Z,0
2022-11-22T17:08:59.000Z,0
2022-11-22T17:10:15.000Z,0
2022-11-22T17:11:32.000Z,0
2022-11-22T17:12:47.000Z,0
2022-11-22T17:14:03.000Z,0
2022-11-22T17:15:19.000Z,0
2022-11-22T17:16:35.000Z,0
2022-11-22T17:17:52.000Z,0
2022-11-22T17:19:08.000Z,0
2022-11-22T17:20:24.000Z,0
2022-11-22T17:21:40.000Z,0
2022-11-22T17:22:56.000Z,0
2022-11-22T17:24:13.000Z,0
2022-11-22T17:25:29.000Z,0
2022-11-22T17:26:45.000Z,0
2022-11-22T17:28:01.000Z,0
2022-11-22T17:29:17.000Z,0
2022-11-22T17:30:33.000Z,0
2022-11-22T17:31:49.000Z,0
2022-11-22T17:33:05.000Z,0
2022-11-22T17:34:21.000Z,0
2022-11-22T17:35:37.000Z,0
2022-11-22T17:36:52.000Z,0
2022-11-22T17:38:09.000Z,0
2022-11-22T17:39:25.000Z,0
2022-11-22T17:40:41.000Z,0
2022-11-22T17:41:57.000Z,0
2022-11-22T17:43:13.000Z,0
2022-11-22T17:44:30.000Z,0
2022-11-22T17:45:46.000Z,0
2022-11-22T17:47:02.000Z,0
2022-11-22T17:48:18.000Z,0
2022-11-22T17:49:34.000Z,0
2022-11-22T17:50:50.000Z,0
2022-11-22T17:52:07.000Z,0
2022-11-22T17:53:22.000Z,0
2022-11-22T17:54:38.000Z,0
2022-11-22T17:55:54.000Z,0
2022-11-22T17:57:10.000Z,0
2022-11-22T17:58:27.000Z,0
2022-11-22T17:59:43.000Z,0
2022-11-22T18:00:59.000Z,0
2022-11-22T18:02:15.000Z,0
2022-11-22T18:03:31.000Z,0
2022-11-22T18:04:48.000Z,0
2022-11-22T18:06:04.000Z,0
2022-11-22T18:07:20.000Z,0
2022-11-22T18:08:36.000Z,0
2022-11-22T18:09:52.000Z,0
2022-11-22T18:11:08.000Z,0
2022-11-22T18:12:24.000Z,0
2022-11-22T18:13:40.000Z,0
2022-11-22T18:14:56.000Z,0
2022-11-22T18:16:12.000Z,0
2022-11-22T18:17:28.000Z,0
2022-11-22T18:18:45.000Z,0
2022-11-22T18:20:01.000Z,0
2022-11-22T18:21:17.000Z,0
2022-11-22T18:22:33.000Z,0
2022-11-22T18:23:49.000Z,0
2022-11-22T18:25:06.000Z,0
2022-11-22T18:26:22.000Z,0
2022-11-22T18:27:37.000Z,0
2022-11-22T18:28:53.000Z,0
2022-11-22T18:30:09.000Z,0
2022-11-22T18:31:26.000Z,0
2022-11-22T18:32:42.000Z,0
2022-11-22T18:33:58.000Z,0
2022-11-22T18:35:14.000Z,0
2022-11-22T18:36:30.000Z,0
2022-11-22T18:37:47.000Z,0
2022-11-22T18:39:03.000Z,0
2022-11-22T18:40:19.000Z,0
2022-11-22T18:41:35.000Z,0